sensor_id;sensor_type;location;lat;lon;timestamp;temperature;humidity
32769;DHT22;23049;54.304;8.826;2023-07-02T00:01:45;17.40;99.90
32769;DHT22;23049;54.304;8.826;2023-07-02T00:04:10;17.40;99.90
32769;DHT22;23049;54.304;8.826;2023-07-02T00:06:39;17.30;99.90
32769;DHT22;23049;54.304;8.826;2023-07-02T00:09:06;17.30;99.90
32769;DHT22;23049;54.304;8.826;2023-07-02T00:11:31;17.30;99.90
32769;DHT22;23049;54.304;8.826;2023-07-02T00:13:57;17.30;99.90
32769;DHT22;23049;54.304;8.826;2023-07-02T00:16:22;17.40;99.90
32769;DHT22;23049;54.304;8.826;2023-07-02T00:18:48;17.40;99.90
32769;DHT22;23049;54.304;8.826;2023-07-02T00:21:18;17.40;99.90
32769;DHT22;23049;54.304;8.826;2023-07-02T00:23:44;17.40;99.90
32769;DHT22;23049;54.304;8.826;2023-07-02T00:26:10;17.40;99.90
32769;DHT22;23049;54.304;8.826;2023-07-02T00:28:35;17.40;99.90
32769;DHT22;23049;54.304;8.826;2023-07-02T00:31:00;17.40;99.90
32769;DHT22;23049;54.304;8.826;2023-07-02T00:33:27;17.30;99.90
32769;DHT22;23049;54.304;8.826;2023-07-02T00:38:17;17.30;99.90
32769;DHT22;23049;54.304;8.826;2023-07-02T00:40:42;17.20;99.90
32769;DHT22;23049;54.304;8.826;2023-07-02T00:43:08;17.20;99.90
32769;DHT22;23049;54.304;8.826;2023-07-02T00:52:59;17.10;99.90
32769;DHT22;23049;54.304;8.826;2023-07-02T00:55:25;17.10;99.90
32769;DHT22;23049;54.304;8.826;2023-07-02T00:57:50;17.10;99.90
32769;DHT22;23049;54.304;8.826;2023-07-02T01:02:34;17.10;99.90
32769;DHT22;23049;54.304;8.826;2023-07-02T01:05:00;17.00;99.90
32769;DHT22;23049;54.304;8.826;2023-07-02T01:07:26;17.00;99.90
32769;DHT22;23049;54.304;8.826;2023-07-02T01:09:51;17.00;99.90
32769;DHT22;23049;54.304;8.826;2023-07-02T01:12:17;17.00;99.90
32769;DHT22;23049;54.304;8.826;2023-07-02T01:14:44;17.00;99.90
32769;DHT22;23049;54.304;8.826;2023-07-02T01:17:12;16.90;99.90
32769;DHT22;23049;54.304;8.826;2023-07-02T01:22:12;16.80;99.90
32769;DHT22;23049;54.304;8.826;2023-07-02T01:27:04;16.90;99.90
32769;DHT22;23049;54.304;8.826;2023-07-02T01:29:30;16.90;99.90
32769;DHT22;23049;54.304;8.826;2023-07-02T01:31:55;16.90;99.90
32769;DHT22;23049;54.304;8.826;2023-07-02T01:34:21;16.90;99.90
32769;DHT22;23049;54.304;8.826;2023-07-02T01:36:47;16.90;99.90
32769;DHT22;23049;54.304;8.826;2023-07-02T01:39:12;16.90;99.90
32769;DHT22;23049;54.304;8.826;2023-07-02T01:41:44;16.90;99.90
32769;DHT22;23049;54.304;8.826;2023-07-02T01:46:43;16.80;99.90
32769;DHT22;23049;54.304;8.826;2023-07-02T01:54:13;16.80;99.90
32769;DHT22;23049;54.304;8.826;2023-07-02T01:56:39;16.80;99.90
32769;DHT22;23049;54.304;8.826;2023-07-02T01:59:04;16.70;99.90
32769;DHT22;23049;54.304;8.826;2023-07-02T02:01:30;16.60;99.90
32769;DHT22;23049;54.304;8.826;2023-07-02T02:03:55;16.60;99.90
32769;DHT22;23049;54.304;8.826;2023-07-02T02:06:21;16.60;99.90
32769;DHT22;23049;54.304;8.826;2023-07-02T02:08:46;16.60;99.90
32769;DHT22;23049;54.304;8.826;2023-07-02T02:13:28;16.60;99.90
32769;DHT22;23049;54.304;8.826;2023-07-02T02:21:06;16.60;99.90
32769;DHT22;23049;54.304;8.826;2023-07-02T02:23:32;16.60;99.90
32769;DHT22;23049;54.304;8.826;2023-07-02T02:25:57;16.60;99.90
32769;DHT22;23049;54.304;8.826;2023-07-02T02:28:23;16.60;99.90
32769;DHT22;23049;54.304;8.826;2023-07-02T02:33:38;16.60;99.90
32769;DHT22;23049;54.304;8.826;2023-07-02T02:36:03;16.60;99.90
32769;DHT22;23049;54.304;8.826;2023-07-02T02:38:29;16.60;99.90
32769;DHT22;23049;54.304;8.826;2023-07-02T02:40:54;16.60;99.90
32769;DHT22;23049;54.304;8.826;2023-07-02T02:43:20;16.60;99.90
32769;DHT22;23049;54.304;8.826;2023-07-02T02:45:46;16.60;99.90
32769;DHT22;23049;54.304;8.826;2023-07-02T02:48:12;16.60;99.90
32769;DHT22;23049;54.304;8.826;2023-07-02T02:53:00;16.70;99.90
32769;DHT22;23049;54.304;8.826;2023-07-02T02:55:26;16.70;99.90
32769;DHT22;23049;54.304;8.826;2023-07-02T02:57:51;16.70;99.90
32769;DHT22;23049;54.304;8.826;2023-07-02T03:02:52;16.70;99.90
32769;DHT22;23049;54.304;8.826;2023-07-02T03:05:18;16.70;99.90
32769;DHT22;23049;54.304;8.826;2023-07-02T03:07:43;16.60;99.90
32769;DHT22;23049;54.304;8.826;2023-07-02T03:15:19;16.50;99.90
32769;DHT22;23049;54.304;8.826;2023-07-02T03:17:44;16.60;99.90
32769;DHT22;23049;54.304;8.826;2023-07-02T03:22:33;16.70;99.90
32769;DHT22;23049;54.304;8.826;2023-07-02T03:25:00;16.70;99.90
32769;DHT22;23049;54.304;8.826;2023-07-02T03:27:25;16.70;99.90
32769;DHT22;23049;54.304;8.826;2023-07-02T03:29:51;16.60;99.90
32769;DHT22;23049;54.304;8.826;2023-07-02T03:32:17;16.40;99.90
32769;DHT22;23049;54.304;8.826;2023-07-02T03:34:42;16.30;99.90
32769;DHT22;23049;54.304;8.826;2023-07-02T03:37:08;16.10;99.90
32769;DHT22;23049;54.304;8.826;2023-07-02T03:42:08;15.80;99.90
32769;DHT22;23049;54.304;8.826;2023-07-02T03:44:34;15.90;99.90
32769;DHT22;23049;54.304;8.826;2023-07-02T03:46:59;16.00;99.90
32769;DHT22;23049;54.304;8.826;2023-07-02T03:51:49;16.00;99.90
32769;DHT22;23049;54.304;8.826;2023-07-02T03:54:15;16.10;99.90
32769;DHT22;23049;54.304;8.826;2023-07-02T03:56:40;16.10;99.90
32769;DHT22;23049;54.304;8.826;2023-07-02T04:01:35;16.10;99.90
32769;DHT22;23049;54.304;8.826;2023-07-02T04:04:01;16.10;99.90
32769;DHT22;23049;54.304;8.826;2023-07-02T04:06:26;16.20;99.90
32769;DHT22;23049;54.304;8.826;2023-07-02T04:08:52;16.30;99.90
32769;DHT22;23049;54.304;8.826;2023-07-02T04:11:17;16.50;99.90
32769;DHT22;23049;54.304;8.826;2023-07-02T04:13:43;16.70;99.90
32769;DHT22;23049;54.304;8.826;2023-07-02T04:16:08;15.90;99.90
32769;DHT22;23049;54.304;8.826;2023-07-02T04:18:34;15.30;99.90
32769;DHT22;23049;54.304;8.826;2023-07-02T04:21:00;14.90;99.90
32769;DHT22;23049;54.304;8.826;2023-07-02T04:23:25;14.80;99.90
32769;DHT22;23049;54.304;8.826;2023-07-02T04:25:51;14.80;99.90
32769;DHT22;23049;54.304;8.826;2023-07-02T04:28:16;14.80;99.90
32769;DHT22;23049;54.304;8.826;2023-07-02T04:30:42;14.90;99.90
32769;DHT22;23049;54.304;8.826;2023-07-02T04:33:08;14.90;99.90
32769;DHT22;23049;54.304;8.826;2023-07-02T04:35:33;15.00;99.90
32769;DHT22;23049;54.304;8.826;2023-07-02T04:38:00;15.10;99.90
32769;DHT22;23049;54.304;8.826;2023-07-02T04:40:25;15.20;99.90
32769;DHT22;23049;54.304;8.826;2023-07-02T04:42:51;15.20;99.90
32769;DHT22;23049;54.304;8.826;2023-07-02T04:45:26;15.30;99.90
32769;DHT22;23049;54.304;8.826;2023-07-02T04:47:52;15.40;99.90
32769;DHT22;23049;54.304;8.826;2023-07-02T04:50:18;15.50;99.90
32769;DHT22;23049;54.304;8.826;2023-07-02T04:52:44;15.60;99.90
32769;DHT22;23049;54.304;8.826;2023-07-02T04:55:09;15.60;99.90
32769;DHT22;23049;54.304;8.826;2023-07-02T04:57:35;15.60;99.90
32769;DHT22;23049;54.304;8.826;2023-07-02T05:00:00;15.60;99.90
32769;DHT22;23049;54.304;8.826;2023-07-02T05:02:26;15.70;99.90
32769;DHT22;23049;54.304;8.826;2023-07-02T05:04:52;15.80;99.90
32769;DHT22;23049;54.304;8.826;2023-07-02T05:07:17;15.80;99.90
32769;DHT22;23049;54.304;8.826;2023-07-02T05:09:42;15.90;99.90
32769;DHT22;23049;54.304;8.826;2023-07-02T05:12:09;16.00;99.90
32769;DHT22;23049;54.304;8.826;2023-07-02T05:14:34;16.20;99.90
32769;DHT22;23049;54.304;8.826;2023-07-02T05:17:00;16.20;99.90
32769;DHT22;23049;54.304;8.826;2023-07-02T05:19:26;16.20;99.90
32769;DHT22;23049;54.304;8.826;2023-07-02T05:21:51;16.20;99.90
32769;DHT22;23049;54.304;8.826;2023-07-02T05:24:17;16.30;99.90
32769;DHT22;23049;54.304;8.826;2023-07-02T05:26:42;16.30;99.90
32769;DHT22;23049;54.304;8.826;2023-07-02T05:29:08;16.30;99.90
32769;DHT22;23049;54.304;8.826;2023-07-02T05:31:33;16.20;99.90
32769;DHT22;23049;54.304;8.826;2023-07-02T05:33:59;16.30;99.90
32769;DHT22;23049;54.304;8.826;2023-07-02T05:36:25;16.20;99.90
32769;DHT22;23049;54.304;8.826;2023-07-02T05:41:19;16.00;99.90
32769;DHT22;23049;54.304;8.826;2023-07-02T05:43:45;15.90;99.90
32769;DHT22;23049;54.304;8.826;2023-07-02T05:46:11;15.80;99.90
32769;DHT22;23049;54.304;8.826;2023-07-02T05:48:37;15.90;99.90
32769;DHT22;23049;54.304;8.826;2023-07-02T05:51:06;15.90;99.90
32769;DHT22;23049;54.304;8.826;2023-07-02T05:53:31;15.90;99.90
32769;DHT22;23049;54.304;8.826;2023-07-02T05:55:57;15.90;99.90
32769;DHT22;23049;54.304;8.826;2023-07-02T05:58:22;16.00;99.90
32769;DHT22;23049;54.304;8.826;2023-07-02T06:00:48;16.50;99.90
32769;DHT22;23049;54.304;8.826;2023-07-02T06:03:15;16.80;99.90
32769;DHT22;23049;54.304;8.826;2023-07-02T06:05:46;16.80;99.90
32769;DHT22;23049;54.304;8.826;2023-07-02T06:08:11;16.60;99.90
32769;DHT22;23049;54.304;8.826;2023-07-02T06:10:37;16.20;99.90
32769;DHT22;23049;54.304;8.826;2023-07-02T06:13:02;15.90;99.90
32769;DHT22;23049;54.304;8.826;2023-07-02T06:15:28;15.60;99.90
32769;DHT22;23049;54.304;8.826;2023-07-02T06:17:53;15.40;99.90
32769;DHT22;23049;54.304;8.826;2023-07-02T06:20:18;15.30;99.90
32769;DHT22;23049;54.304;8.826;2023-07-02T06:22:44;15.20;99.90
32769;DHT22;23049;54.304;8.826;2023-07-02T06:25:09;15.10;99.90
32769;DHT22;23049;54.304;8.826;2023-07-02T06:27:35;15.20;99.90
32769;DHT22;23049;54.304;8.826;2023-07-02T06:30:01;15.30;99.90
32769;DHT22;23049;54.304;8.826;2023-07-02T06:32:26;15.40;99.90
32769;DHT22;23049;54.304;8.826;2023-07-02T06:34:52;15.50;99.90
32769;DHT22;23049;54.304;8.826;2023-07-02T06:37:17;15.80;99.90
32769;DHT22;23049;54.304;8.826;2023-07-02T06:41:58;16.40;99.90
32769;DHT22;23049;54.304;8.826;2023-07-02T06:44:24;16.70;99.90
32769;DHT22;23049;54.304;8.826;2023-07-02T06:46:49;16.90;99.90
32769;DHT22;23049;54.304;8.826;2023-07-02T06:51:57;17.10;99.90
32769;DHT22;23049;54.304;8.826;2023-07-02T06:54:25;17.20;99.90
32769;DHT22;23049;54.304;8.826;2023-07-02T06:56:51;17.10;99.90
32769;DHT22;23049;54.304;8.826;2023-07-02T06:59:22;16.90;99.90
32769;DHT22;23049;54.304;8.826;2023-07-02T07:01:48;16.80;99.90
32769;DHT22;23049;54.304;8.826;2023-07-02T07:04:14;16.50;99.90
32769;DHT22;23049;54.304;8.826;2023-07-02T07:06:40;16.20;99.90
32769;DHT22;23049;54.304;8.826;2023-07-02T07:09:05;15.80;99.90
32769;DHT22;23049;54.304;8.826;2023-07-02T07:11:31;15.60;99.90
32769;DHT22;23049;54.304;8.826;2023-07-02T07:13:56;15.50;99.90
32769;DHT22;23049;54.304;8.826;2023-07-02T07:16:22;15.30;99.90
32769;DHT22;23049;54.304;8.826;2023-07-02T07:18:48;15.20;99.90
32769;DHT22;23049;54.304;8.826;2023-07-02T07:21:13;15.10;99.90
32769;DHT22;23049;54.304;8.826;2023-07-02T07:23:39;15.10;99.90
32769;DHT22;23049;54.304;8.826;2023-07-02T07:26:05;15.10;99.90
32769;DHT22;23049;54.304;8.826;2023-07-02T07:28:30;15.20;99.90
32769;DHT22;23049;54.304;8.826;2023-07-02T07:30:56;15.30;99.90
32769;DHT22;23049;54.304;8.826;2023-07-02T07:35:44;15.60;99.90
32769;DHT22;23049;54.304;8.826;2023-07-02T07:38:10;15.70;99.90
32769;DHT22;23049;54.304;8.826;2023-07-02T07:40:38;15.90;99.90
32769;DHT22;23049;54.304;8.826;2023-07-02T07:43:03;16.10;99.90
32769;DHT22;23049;54.304;8.826;2023-07-02T07:45:28;16.40;99.90
32769;DHT22;23049;54.304;8.826;2023-07-02T07:47:54;16.70;99.90
32769;DHT22;23049;54.304;8.826;2023-07-02T07:50:19;16.60;99.90
32769;DHT22;23049;54.304;8.826;2023-07-02T07:52:45;16.30;99.90
32769;DHT22;23049;54.304;8.826;2023-07-02T07:55:11;15.60;99.90
32769;DHT22;23049;54.304;8.826;2023-07-02T07:57:36;15.40;99.90
32769;DHT22;23049;54.304;8.826;2023-07-02T08:00:02;15.30;99.90
32769;DHT22;23049;54.304;8.826;2023-07-02T08:02:30;15.40;99.90
32769;DHT22;23049;54.304;8.826;2023-07-02T08:04:56;15.50;99.90
32769;DHT22;23049;54.304;8.826;2023-07-02T08:07:21;15.90;99.90
32769;DHT22;23049;54.304;8.826;2023-07-02T08:09:47;15.90;99.90
32769;DHT22;23049;54.304;8.826;2023-07-02T08:12:13;15.90;99.90
32769;DHT22;23049;54.304;8.826;2023-07-02T08:14:38;16.20;99.90
32769;DHT22;23049;54.304;8.826;2023-07-02T08:17:04;16.30;99.90
32769;DHT22;23049;54.304;8.826;2023-07-02T08:19:29;16.30;99.90
32769;DHT22;23049;54.304;8.826;2023-07-02T08:21:55;16.60;99.90
32769;DHT22;23049;54.304;8.826;2023-07-02T08:24:20;16.90;99.90
32769;DHT22;23049;54.304;8.826;2023-07-02T08:26:46;16.80;99.90
32769;DHT22;23049;54.304;8.826;2023-07-02T08:29:13;16.20;99.90
32769;DHT22;23049;54.304;8.826;2023-07-02T08:31:39;15.90;99.90
32769;DHT22;23049;54.304;8.826;2023-07-02T08:34:05;15.60;99.90
32769;DHT22;23049;54.304;8.826;2023-07-02T08:36:30;15.60;99.90
32769;DHT22;23049;54.304;8.826;2023-07-02T08:38:56;15.50;99.90
32769;DHT22;23049;54.304;8.826;2023-07-02T08:41:21;15.60;99.90
32769;DHT22;23049;54.304;8.826;2023-07-02T08:43:49;15.60;99.90
32769;DHT22;23049;54.304;8.826;2023-07-02T08:46:15;15.50;99.90
32769;DHT22;23049;54.304;8.826;2023-07-02T08:48:40;15.60;99.90
32769;DHT22;23049;54.304;8.826;2023-07-02T08:53:36;16.20;99.90
32769;DHT22;23049;54.304;8.826;2023-07-02T08:56:02;16.50;99.90
32769;DHT22;23049;54.304;8.826;2023-07-02T08:58:28;16.60;99.90
32769;DHT22;23049;54.304;8.826;2023-07-02T09:03:32;16.90;99.90
32769;DHT22;23049;54.304;8.826;2023-07-02T09:05:58;16.80;99.90
32769;DHT22;23049;54.304;8.826;2023-07-02T09:08:26;16.80;99.90
32769;DHT22;23049;54.304;8.826;2023-07-02T09:10:53;17.20;99.90
32769;DHT22;23049;54.304;8.826;2023-07-02T09:13:18;17.20;99.90
32769;DHT22;23049;54.304;8.826;2023-07-02T09:15:44;17.10;99.90
32769;DHT22;23049;54.304;8.826;2023-07-02T09:18:19;16.90;99.90
32769;DHT22;23049;54.304;8.826;2023-07-02T09:20:44;16.90;99.90
32769;DHT22;23049;54.304;8.826;2023-07-02T09:23:10;17.00;99.90
32769;DHT22;23049;54.304;8.826;2023-07-02T09:25:36;17.10;99.90
32769;DHT22;23049;54.304;8.826;2023-07-02T09:28:13;17.40;99.90
32769;DHT22;23049;54.304;8.826;2023-07-02T09:30:38;17.50;99.90
32769;DHT22;23049;54.304;8.826;2023-07-02T09:33:13;17.40;99.90
32769;DHT22;23049;54.304;8.826;2023-07-02T09:35:40;17.40;99.90
32769;DHT22;23049;54.304;8.826;2023-07-02T09:38:06;17.30;99.90
32769;DHT22;23049;54.304;8.826;2023-07-02T09:40:32;17.30;99.90
32769;DHT22;23049;54.304;8.826;2023-07-02T09:42:58;17.50;99.90
32769;DHT22;23049;54.304;8.826;2023-07-02T09:45:24;17.60;99.90
32769;DHT22;23049;54.304;8.826;2023-07-02T09:47:50;17.70;99.90
32769;DHT22;23049;54.304;8.826;2023-07-02T09:50:17;17.40;99.90
32769;DHT22;23049;54.304;8.826;2023-07-02T09:52:44;17.40;99.90
32769;DHT22;23049;54.304;8.826;2023-07-02T09:55:09;17.60;99.90
32769;DHT22;23049;54.304;8.826;2023-07-02T09:57:35;17.80;99.90
32769;DHT22;23049;54.304;8.826;2023-07-02T10:00:01;17.70;99.90
32769;DHT22;23049;54.304;8.826;2023-07-02T10:02:26;17.70;99.90
32769;DHT22;23049;54.304;8.826;2023-07-02T10:04:52;17.80;99.90
32769;DHT22;23049;54.304;8.826;2023-07-02T10:07:30;17.80;99.90
32769;DHT22;23049;54.304;8.826;2023-07-02T10:09:56;17.80;99.90
32769;DHT22;23049;54.304;8.826;2023-07-02T10:12:22;17.80;99.90
32769;DHT22;23049;54.304;8.826;2023-07-02T10:14:49;17.80;99.90
32769;DHT22;23049;54.304;8.826;2023-07-02T10:17:28;17.80;99.90
32769;DHT22;23049;54.304;8.826;2023-07-02T10:19:54;18.00;99.90
32769;DHT22;23049;54.304;8.826;2023-07-02T10:22:20;18.10;99.90
32769;DHT22;23049;54.304;8.826;2023-07-02T10:24:58;18.20;99.90
32769;DHT22;23049;54.304;8.826;2023-07-02T10:30:00;18.40;99.90
32769;DHT22;23049;54.304;8.826;2023-07-02T10:32:28;18.60;99.90
32769;DHT22;23049;54.304;8.826;2023-07-02T10:34:54;18.60;99.90
32769;DHT22;23049;54.304;8.826;2023-07-02T10:37:20;18.30;99.90
32769;DHT22;23049;54.304;8.826;2023-07-02T10:39:45;17.90;99.90
32769;DHT22;23049;54.304;8.826;2023-07-02T10:42:11;17.80;99.90
32769;DHT22;23049;54.304;8.826;2023-07-02T10:47:14;17.30;99.90
32769;DHT22;23049;54.304;8.826;2023-07-02T10:49:39;17.30;99.90
32769;DHT22;23049;54.304;8.826;2023-07-02T10:52:05;17.30;99.90
32769;DHT22;23049;54.304;8.826;2023-07-02T10:54:45;17.30;99.90
32769;DHT22;23049;54.304;8.826;2023-07-02T10:57:15;17.70;99.90
32769;DHT22;23049;54.304;8.826;2023-07-02T10:59:47;18.20;99.90
32769;DHT22;23049;54.304;8.826;2023-07-02T11:02:14;18.50;99.90
32769;DHT22;23049;54.304;8.826;2023-07-02T11:04:39;18.50;99.90
32769;DHT22;23049;54.304;8.826;2023-07-02T11:07:05;17.90;99.90
32769;DHT22;23049;54.304;8.826;2023-07-02T11:09:32;17.70;99.90
32769;DHT22;23049;54.304;8.826;2023-07-02T11:11:58;17.50;99.90
32769;DHT22;23049;54.304;8.826;2023-07-02T11:14:34;17.70;99.90
32769;DHT22;23049;54.304;8.826;2023-07-02T11:17:03;17.90;99.90
32769;DHT22;23049;54.304;8.826;2023-07-02T11:19:31;17.90;99.90
32769;DHT22;23049;54.304;8.826;2023-07-02T11:21:57;18.20;99.90
32769;DHT22;23049;54.304;8.826;2023-07-02T11:24:27;18.30;99.90
32769;DHT22;23049;54.304;8.826;2023-07-02T11:26:53;18.20;99.90
32769;DHT22;23049;54.304;8.826;2023-07-02T11:29:19;18.00;99.90
32769;DHT22;23049;54.304;8.826;2023-07-02T11:31:45;17.90;99.90
32769;DHT22;23049;54.304;8.826;2023-07-02T11:36:39;18.20;99.90
32769;DHT22;23049;54.304;8.826;2023-07-02T11:39:04;18.40;99.90
32769;DHT22;23049;54.304;8.826;2023-07-02T11:41:40;18.40;99.90
32769;DHT22;23049;54.304;8.826;2023-07-02T11:44:06;18.60;99.90
32769;DHT22;23049;54.304;8.826;2023-07-02T11:46:32;18.90;99.90
32769;DHT22;23049;54.304;8.826;2023-07-02T11:51:26;18.80;99.90
32769;DHT22;23049;54.304;8.826;2023-07-02T11:53:51;18.70;99.90
32769;DHT22;23049;54.304;8.826;2023-07-02T11:56:17;18.90;99.90
32769;DHT22;23049;54.304;8.826;2023-07-02T11:58:42;19.10;99.90
32769;DHT22;23049;54.304;8.826;2023-07-02T12:01:08;18.70;99.90
32769;DHT22;23049;54.304;8.826;2023-07-02T12:03:33;18.30;99.90
32769;DHT22;23049;54.304;8.826;2023-07-02T12:05:59;18.60;99.90
32769;DHT22;23049;54.304;8.826;2023-07-02T12:08:25;19.10;99.90
32769;DHT22;23049;54.304;8.826;2023-07-02T12:10:50;18.80;99.90
32769;DHT22;23049;54.304;8.826;2023-07-02T12:13:16;18.50;99.90
32769;DHT22;23049;54.304;8.826;2023-07-02T12:15:41;18.20;99.90
32769;DHT22;23049;54.304;8.826;2023-07-02T12:18:08;18.00;99.90
32769;DHT22;23049;54.304;8.826;2023-07-02T12:25:14;17.90;99.90
32769;DHT22;23049;54.304;8.826;2023-07-02T12:27:40;18.00;99.90
32769;DHT22;23049;54.304;8.826;2023-07-02T12:30:06;18.30;99.90
32769;DHT22;23049;54.304;8.826;2023-07-02T12:32:31;18.50;99.90
32769;DHT22;23049;54.304;8.826;2023-07-02T12:34:57;18.20;99.90
32769;DHT22;23049;54.304;8.826;2023-07-02T12:37:22;18.40;99.90
32769;DHT22;23049;54.304;8.826;2023-07-02T12:39:48;18.50;99.90
32769;DHT22;23049;54.304;8.826;2023-07-02T12:42:14;18.40;99.90
32769;DHT22;23049;54.304;8.826;2023-07-02T12:44:39;18.10;99.90
32769;DHT22;23049;54.304;8.826;2023-07-02T12:47:05;17.90;99.90
32769;DHT22;23049;54.304;8.826;2023-07-02T12:49:30;17.90;99.90
32769;DHT22;23049;54.304;8.826;2023-07-02T12:51:56;18.10;99.90
32769;DHT22;23049;54.304;8.826;2023-07-02T12:54:25;18.10;99.90
32769;DHT22;23049;54.304;8.826;2023-07-02T12:59:14;17.70;99.90
32769;DHT22;23049;54.304;8.826;2023-07-02T13:01:39;17.60;99.90
32769;DHT22;23049;54.304;8.826;2023-07-02T13:04:05;17.40;99.90
32769;DHT22;23049;54.304;8.826;2023-07-02T13:11:25;17.80;99.90
32769;DHT22;23049;54.304;8.826;2023-07-02T13:16:17;18.30;99.90
32769;DHT22;23049;54.304;8.826;2023-07-02T13:22:45;18.40;99.90
32769;DHT22;23049;54.304;8.826;2023-07-02T13:25:11;18.80;99.90
32769;DHT22;23049;54.304;8.826;2023-07-02T13:27:36;19.00;99.90
32769;DHT22;23049;54.304;8.826;2023-07-02T13:30:02;19.20;99.90
32769;DHT22;23049;54.304;8.826;2023-07-02T13:32:28;19.20;99.90
32769;DHT22;23049;54.304;8.826;2023-07-02T13:34:53;19.10;99.90
32769;DHT22;23049;54.304;8.826;2023-07-02T13:39:53;19.20;99.90
32769;DHT22;23049;54.304;8.826;2023-07-02T13:42:18;19.00;99.90
32769;DHT22;23049;54.304;8.826;2023-07-02T13:44:44;18.70;99.90
32769;DHT22;23049;54.304;8.826;2023-07-02T13:47:10;18.50;99.90
32769;DHT22;23049;54.304;8.826;2023-07-02T13:49:36;18.20;99.90
32769;DHT22;23049;54.304;8.826;2023-07-02T13:52:02;17.90;99.90
32769;DHT22;23049;54.304;8.826;2023-07-02T13:54:27;17.70;99.90
32769;DHT22;23049;54.304;8.826;2023-07-02T13:56:53;17.90;99.90
32769;DHT22;23049;54.304;8.826;2023-07-02T13:59:18;18.20;99.90
32769;DHT22;23049;54.304;8.826;2023-07-02T14:04:31;18.30;99.90
32769;DHT22;23049;54.304;8.826;2023-07-02T14:06:57;18.10;99.90
32769;DHT22;23049;54.304;8.826;2023-07-02T14:15:38;17.90;99.90
32769;DHT22;23049;54.304;8.826;2023-07-02T14:18:04;17.80;99.90
32769;DHT22;23049;54.304;8.826;2023-07-02T14:20:29;17.80;99.90
32769;DHT22;23049;54.304;8.826;2023-07-02T14:22:55;18.20;99.90
32769;DHT22;23049;54.304;8.826;2023-07-02T14:25:20;18.50;99.90
32769;DHT22;23049;54.304;8.826;2023-07-02T14:27:46;18.30;99.90
32769;DHT22;23049;54.304;8.826;2023-07-02T14:32:23;18.50;99.90
32769;DHT22;23049;54.304;8.826;2023-07-02T14:34:48;18.40;99.90
32769;DHT22;23049;54.304;8.826;2023-07-02T14:40:26;18.40;99.90
32769;DHT22;23049;54.304;8.826;2023-07-02T14:42:51;18.30;99.90
32769;DHT22;23049;54.304;8.826;2023-07-02T14:45:17;18.10;99.90
32769;DHT22;23049;54.304;8.826;2023-07-02T14:47:42;18.00;99.90
32769;DHT22;23049;54.304;8.826;2023-07-02T14:50:08;17.80;99.90
32769;DHT22;23049;54.304;8.826;2023-07-02T14:52:33;17.70;99.90
32769;DHT22;23049;54.304;8.826;2023-07-02T14:54:59;17.90;99.90
32769;DHT22;23049;54.304;8.826;2023-07-02T14:57:26;17.80;99.90
32769;DHT22;23049;54.304;8.826;2023-07-02T14:59:51;17.60;99.90
32769;DHT22;23049;54.304;8.826;2023-07-02T15:02:18;17.50;99.90
32769;DHT22;23049;54.304;8.826;2023-07-02T15:04:43;17.50;99.90
32769;DHT22;23049;54.304;8.826;2023-07-02T15:07:09;17.50;99.90
32769;DHT22;23049;54.304;8.826;2023-07-02T15:11:55;17.70;99.90
32769;DHT22;23049;54.304;8.826;2023-07-02T15:14:21;17.90;99.90
32769;DHT22;23049;54.304;8.826;2023-07-02T15:16:46;17.90;99.90
32769;DHT22;23049;54.304;8.826;2023-07-02T15:19:12;18.00;99.90
32769;DHT22;23049;54.304;8.826;2023-07-02T15:21:38;17.90;99.90
32769;DHT22;23049;54.304;8.826;2023-07-02T15:24:04;17.80;99.90
32769;DHT22;23049;54.304;8.826;2023-07-02T15:28:44;18.00;99.90
32769;DHT22;23049;54.304;8.826;2023-07-02T15:31:10;18.20;99.90
32769;DHT22;23049;54.304;8.826;2023-07-02T15:33:36;18.10;99.90
32769;DHT22;23049;54.304;8.826;2023-07-02T15:36:02;17.90;99.90
32769;DHT22;23049;54.304;8.826;2023-07-02T15:38:28;17.80;99.90
32769;DHT22;23049;54.304;8.826;2023-07-02T15:41:04;17.70;99.90
32769;DHT22;23049;54.304;8.826;2023-07-02T15:43:29;17.90;99.90
32769;DHT22;23049;54.304;8.826;2023-07-02T15:45:55;17.80;99.90
32769;DHT22;23049;54.304;8.826;2023-07-02T15:50:51;17.80;99.90
32769;DHT22;23049;54.304;8.826;2023-07-02T15:53:17;17.70;99.90
32769;DHT22;23049;54.304;8.826;2023-07-02T15:55:46;17.70;99.90
32769;DHT22;23049;54.304;8.826;2023-07-02T15:58:11;17.60;99.90
32769;DHT22;23049;54.304;8.826;2023-07-02T16:00:38;17.50;99.90
32769;DHT22;23049;54.304;8.826;2023-07-02T16:03:04;17.70;99.90
32769;DHT22;23049;54.304;8.826;2023-07-02T16:05:32;17.90;99.90
32769;DHT22;23049;54.304;8.826;2023-07-02T16:08:00;18.00;99.90
32769;DHT22;23049;54.304;8.826;2023-07-02T16:10:26;17.80;99.90
32769;DHT22;23049;54.304;8.826;2023-07-02T16:12:51;17.70;99.90
32769;DHT22;23049;54.304;8.826;2023-07-02T16:15:17;17.60;99.90
32769;DHT22;23049;54.304;8.826;2023-07-02T16:17:43;17.60;99.90
32769;DHT22;23049;54.304;8.826;2023-07-02T16:22:28;17.40;99.90
32769;DHT22;23049;54.304;8.826;2023-07-02T16:24:54;17.40;99.90
32769;DHT22;23049;54.304;8.826;2023-07-02T16:27:20;17.60;99.90
32769;DHT22;23049;54.304;8.826;2023-07-02T16:29:46;17.70;99.90
32769;DHT22;23049;54.304;8.826;2023-07-02T16:32:13;17.70;99.90
32769;DHT22;23049;54.304;8.826;2023-07-02T16:34:38;17.80;99.90
32769;DHT22;23049;54.304;8.826;2023-07-02T16:37:04;17.70;99.90
32769;DHT22;23049;54.304;8.826;2023-07-02T16:39:30;17.70;99.90
32769;DHT22;23049;54.304;8.826;2023-07-02T16:41:55;17.50;99.90
32769;DHT22;23049;54.304;8.826;2023-07-02T16:44:25;17.30;99.90
32769;DHT22;23049;54.304;8.826;2023-07-02T16:46:51;17.40;99.90
32769;DHT22;23049;54.304;8.826;2023-07-02T16:54:34;17.40;99.90
32769;DHT22;23049;54.304;8.826;2023-07-02T16:57:00;17.30;99.90
32769;DHT22;23049;54.304;8.826;2023-07-02T16:59:26;17.40;99.90
32769;DHT22;23049;54.304;8.826;2023-07-02T17:01:53;17.40;99.90
32769;DHT22;23049;54.304;8.826;2023-07-02T17:04:19;17.40;99.90
32769;DHT22;23049;54.304;8.826;2023-07-02T17:06:47;17.20;99.90
32769;DHT22;23049;54.304;8.826;2023-07-02T17:16:58;17.40;99.90
32769;DHT22;23049;54.304;8.826;2023-07-02T17:19:31;17.30;99.90
32769;DHT22;23049;54.304;8.826;2023-07-02T17:21:59;17.20;99.90
32769;DHT22;23049;54.304;8.826;2023-07-02T17:27:04;17.10;99.90
32769;DHT22;23049;54.304;8.826;2023-07-02T17:29:29;17.10;99.90
32769;DHT22;23049;54.304;8.826;2023-07-02T17:31:59;17.00;99.90
32769;DHT22;23049;54.304;8.826;2023-07-02T17:34:25;17.10;99.90
32769;DHT22;23049;54.304;8.826;2023-07-02T17:36:53;17.00;99.90
32769;DHT22;23049;54.304;8.826;2023-07-02T17:39:22;16.90;99.90
32769;DHT22;23049;54.304;8.826;2023-07-02T17:41:48;16.80;99.90
32769;DHT22;23049;54.304;8.826;2023-07-02T17:44:15;16.90;99.90